Minnehaha Springs, West Virginia
Current Conditions -  °F | °C
As of 2:15 AM on Sunday 26 Oct 2014 (Local Time) from KHSP Reporting Station
Broken Clouds Broken Clouds  
Wind Chill: 55°   Ceiling: 3000
Heat Index: 55°   Visibility: 10mi
Dew Point: 44°   Wind: 23mph
Humidity: 67%   Direction: 290°WNW
Pressure: 29.8"   Gusts: 37mph
Location:  38.2213°N, 80.0565°W
Report Text: KHSP 260615Z AUTO 29020G32KT 260V320 10SM SCT025 BKN030 BKN035 13/07 A2980 RMK AO2 T01290069
Loading
Personal Weather Stations






























Interactive Weather Map
Tropical Storm Tracking
New forecast layout! Learn more

10-Day Weather Forecast

Advertisements
Track Severe Weather on mobile